sensor_id;sensor_type;location;lat;lon;timestamp;pressure;altitude;pressure_sealevel;temperature;humidity
70521;BME280;58442;52.716;23.560;2022-09-20T00:01:48;100729.11;;;11.75;77.10
70521;BME280;58442;52.716;23.560;2022-09-20T00:03:53;100734.20;;;11.76;77.09
70521;BME280;58442;52.716;23.560;2022-09-20T00:06:00;100733.41;;;11.76;76.97
70521;BME280;58442;52.716;23.560;2022-09-20T00:08:03;100741.58;;;11.76;77.20
70521;BME280;58442;52.716;23.560;2022-09-20T00:10:05;100746.23;;;11.75;77.20
70521;BME280;58442;52.716;23.560;2022-09-20T00:12:06;100752.47;;;11.76;77.26
70521;BME280;58442;52.716;23.560;2022-09-20T00:14:13;100745.09;;;11.76;77.24
70521;BME280;58442;52.716;23.560;2022-09-20T00:16:20;100742.01;;;11.78;77.26
70521;BME280;58442;52.716;23.560;2022-09-20T00:18:21;100742.78;;;11.78;77.26
70521;BME280;58442;52.716;23.560;2022-09-20T00:20:23;100747.87;;;11.80;77.25
70521;BME280;58442;52.716;23.560;2022-09-20T00:22:28;100751.08;;;11.82;77.19
70521;BME280;58442;52.716;23.560;2022-09-20T00:24:29;100751.86;;;11.83;77.23
70521;BME280;58442;52.716;23.560;2022-09-20T00:26:30;100756.16;;;11.84;77.25
70521;BME280;58442;52.716;23.560;2022-09-20T00:28:31;100749.93;;;11.83;77.17
70521;BME280;58442;52.716;23.560;2022-09-20T00:30:43;100749.15;;;11.83;77.22
70521;BME280;58442;52.716;23.560;2022-09-20T00:32:44;100744.48;;;11.83;77.26
70521;BME280;58442;52.716;23.560;2022-09-20T00:34:45;100744.91;;;11.85;77.26
70521;BME280;58442;52.716;23.560;2022-09-20T00:36:57;100748.42;;;11.86;77.22
70521;BME280;58442;52.716;23.560;2022-09-20T00:39:01;100749.98;;;11.87;77.21
70521;BME280;58442;52.716;23.560;2022-09-20T00:41:02;100744.55;;;11.87;77.21
70521;BME280;58442;52.716;23.560;2022-09-20T00:43:03;100751.59;;;11.88;77.20
70521;BME280;58442;52.716;23.560;2022-09-20T00:49:36;100752.81;;;11.90;77.21
70521;BME280;58442;52.716;23.560;2022-09-20T00:51:40;100745.44;;;11.91;77.20
70521;BME280;58442;52.716;23.560;2022-09-20T00:53:47;100745.44;;;11.91;77.20
70521;BME280;58442;52.716;23.560;2022-09-20T00:56:01;100746.21;;;11.91;77.26
70521;BME280;58442;52.716;23.560;2022-09-20T00:57:57;100747.79;;;11.92;77.23
70521;BME280;58442;52.716;23.560;2022-09-20T01:00:03;100743.91;;;11.93;77.22
70521;BME280;58442;52.716;23.560;2022-09-20T01:02:12;100753.23;;;11.92;77.25
70521;BME280;58442;52.716;23.560;2022-09-20T01:04:18;100743.91;;;11.93;77.35
70521;BME280;58442;52.716;23.560;2022-09-20T01:06:22;100746.64;;;11.93;77.26
70521;BME280;58442;52.716;23.560;2022-09-20T01:08:33;100744.37;;;11.95;77.31
70521;BME280;58442;52.716;23.560;2022-09-20T01:10:35;100747.09;;;11.95;77.34
70521;BME280;58442;52.716;23.560;2022-09-20T01:12:37;100750.61;;;11.96;77.31
70521;BME280;58442;52.716;23.560;2022-09-20T01:14:41;100751.82;;;11.98;77.28
70521;BME280;58442;52.716;23.560;2022-09-20T01:16:46;100751.45;;;12.00;77.24
70521;BME280;58442;52.716;23.560;2022-09-20T01:18:48;100746.80;;;12.00;77.20
70521;BME280;58442;52.716;23.560;2022-09-20T01:20:50;100750.33;;;12.01;77.22
70521;BME280;58442;52.716;23.560;2022-09-20T01:25:13;100754.27;;;12.03;77.23
70521;BME280;58442;52.716;23.560;2022-09-20T01:27:37;100749.18;;;12.02;77.25
70521;BME280;58442;52.716;23.560;2022-09-20T01:32:10;100753.48;;;12.03;77.26
70521;BME280;58442;52.716;23.560;2022-09-20T01:34:17;100756.99;;;12.03;77.30
70521;BME280;58442;52.716;23.560;2022-09-20T01:38:47;100751.19;;;12.05;77.31
70521;BME280;58442;52.716;23.560;2022-09-20T01:40:58;100748.88;;;12.07;77.29
70521;BME280;58442;52.716;23.560;2022-09-20T01:43:19;100749.67;;;12.08;77.25
70521;BME280;58442;52.716;23.560;2022-09-20T01:45:26;100745.83;;;12.09;77.25
70521;BME280;58442;52.716;23.560;2022-09-20T01:54:46;100756.72;;;12.09;77.30
70521;BME280;58442;52.716;23.560;2022-09-20T02:04:09;100751.69;;;12.11;77.29
70521;BME280;58442;52.716;23.560;2022-09-20T02:11:07;100755.99;;;12.12;77.25
70521;BME280;58442;52.716;23.560;2022-09-20T02:13:26;100758.30;;;12.10;77.33
70521;BME280;58442;52.716;23.560;2022-09-20T02:22:18;100760.23;;;12.09;77.42
70521;BME280;58442;52.716;23.560;2022-09-20T02:24:28;100759.87;;;12.11;77.39
70521;BME280;58442;52.716;23.560;2022-09-20T02:26:40;100759.87;;;12.11;77.39
70521;BME280;58442;52.716;23.560;2022-09-20T02:33:51;100769.25;;;12.13;77.39
70521;BME280;58442;52.716;23.560;2022-09-20T02:36:07;100769.25;;;12.13;77.38
70521;BME280;58442;52.716;23.560;2022-09-20T02:40:50;100772.07;;;12.17;77.34
70521;BME280;58442;52.716;23.560;2022-09-20T02:45:40;100772.07;;;12.17;77.29
70521;BME280;58442;52.716;23.560;2022-09-20T02:47:46;100772.86;;;12.17;77.29
70521;BME280;58442;52.716;23.560;2022-09-20T02:49:56;100776.37;;;12.18;77.29
70521;BME280;58442;52.716;23.560;2022-09-20T02:52:07;100777.94;;;12.19;77.29
70521;BME280;58442;52.716;23.560;2022-09-20T02:56:39;100780.67;;;12.19;77.32
70521;BME280;58442;52.716;23.560;2022-09-20T03:03:18;100782.24;;;12.20;77.34
70521;BME280;58442;52.716;23.560;2022-09-20T03:05:26;100793.14;;;12.20;77.34
70521;BME280;58442;52.716;23.560;2022-09-20T03:09:53;100789.26;;;12.21;77.34
70521;BME280;58442;52.716;23.560;2022-09-20T03:14:29;100797.44;;;12.21;77.28
70521;BME280;58442;52.716;23.560;2022-09-20T03:21:13;100797.02;;;12.19;77.33
70521;BME280;58442;52.716;23.560;2022-09-20T03:30:02;100794.30;;;12.19;77.33
70521;BME280;58442;52.716;23.560;2022-09-20T03:37:11;100798.59;;;12.20;77.25
70521;BME280;58442;52.716;23.560;2022-09-20T03:39:30;100806.76;;;12.20;77.30
70521;BME280;58442;52.716;23.560;2022-09-20T03:41:51;100805.98;;;12.19;77.32
70521;BME280;58442;52.716;23.560;2022-09-20T03:46:50;100812.99;;;12.20;77.32
70521;BME280;58442;52.716;23.560;2022-09-20T03:55:28;100817.30;;;12.21;77.29
70521;BME280;58442;52.716;23.560;2022-09-20T04:11:51;100824.68;;;12.21;77.15
70521;BME280;58442;52.716;23.560;2022-09-20T04:13:49;100823.12;;;12.20;77.16
70521;BME280;58442;52.716;23.560;2022-09-20T04:22:32;100834.37;;;12.18;77.22
70521;BME280;58442;52.716;23.560;2022-09-20T04:24:43;100830.86;;;12.18;77.26
70521;BME280;58442;52.716;23.560;2022-09-20T04:26:59;100830.07;;;12.17;77.27
70521;BME280;58442;52.716;23.560;2022-09-20T04:33:36;100837.88;;;12.19;77.29
70521;BME280;58442;52.716;23.560;2022-09-20T04:38:09;100843.34;;;12.19;77.24
70521;BME280;58442;52.716;23.560;2022-09-20T04:42:34;100849.15;;;12.17;77.21
70521;BME280;58442;52.716;23.560;2022-09-20T05:03:51;100859.52;;;12.12;77.54
70521;BME280;58442;52.716;23.560;2022-09-20T05:06:09;100859.52;;;12.12;77.56
70521;BME280;58442;52.716;23.560;2022-09-20T05:20:17;100872.45;;;12.15;77.62
70521;BME280;58442;52.716;23.560;2022-09-20T05:34:30;100883.52;;;12.22;77.55
70521;BME280;58442;52.716;23.560;2022-09-20T05:41:52;100889.66;;;12.19;77.69
70521;BME280;58442;52.716;23.560;2022-09-20T05:43:51;100896.69;;;12.20;77.67
70521;BME280;58442;52.716;23.560;2022-09-20T05:48:36;100891.33;;;12.23;77.56
70521;BME280;58442;52.716;23.560;2022-09-20T06:00:17;100906.60;;;12.28;77.53
70521;BME280;58442;52.716;23.560;2022-09-20T06:02:28;100909.78;;;12.30;77.55
70521;BME280;58442;52.716;23.560;2022-09-20T06:04:41;100908.70;;;12.35;77.52
70521;BME280;58442;52.716;23.560;2022-09-20T06:06:51;100911.09;;;12.36;77.52
70521;BME280;58442;52.716;23.560;2022-09-20T06:11:22;100912.04;;;12.44;77.42
70521;BME280;58442;52.716;23.560;2022-09-20T06:15:53;100910.95;;;12.48;77.45
70521;BME280;58442;52.716;23.560;2022-09-20T06:20:36;100920.44;;;12.54;77.42
70521;BME280;58442;52.716;23.560;2022-09-20T06:22:46;100928.29;;;12.56;77.33
70521;BME280;58442;52.716;23.560;2022-09-20T06:27:07;100923.62;;;12.56;77.42
70521;BME280;58442;52.716;23.560;2022-09-20T06:29:13;100929.07;;;12.56;77.40
70521;BME280;58442;52.716;23.560;2022-09-20T06:31:17;100931.43;;;12.58;77.42
70521;BME280;58442;52.716;23.560;2022-09-20T06:33:28;100928.36;;;12.59;77.39
70521;BME280;58442;52.716;23.560;2022-09-20T06:35:36;100938.10;;;12.60;77.36
70521;BME280;58442;52.716;23.560;2022-09-20T06:37:48;100942.41;;;12.62;77.34
70521;BME280;58442;52.716;23.560;2022-09-20T06:42:29;100944.34;;;12.61;77.24
70521;BME280;58442;52.716;23.560;2022-09-20T06:44:30;100940.41;;;12.58;77.29
70521;BME280;58442;52.716;23.560;2022-09-20T06:46:35;100941.56;;;12.57;77.34
70521;BME280;58442;52.716;23.560;2022-09-20T06:48:36;100948.16;;;12.56;77.32
70521;BME280;58442;52.716;23.560;2022-09-20T06:50:41;100947.01;;;12.57;77.23
70521;BME280;58442;52.716;23.560;2022-09-20T06:52:45;100952.01;;;12.55;77.26
70521;BME280;58442;52.716;23.560;2022-09-20T06:54:51;100957.03;;;12.53;77.36
70521;BME280;58442;52.716;23.560;2022-09-20T06:56:53;100951.16;;;12.51;77.50
70521;BME280;58442;52.716;23.560;2022-09-20T06:58:55;100955.45;;;12.52;77.53
70521;BME280;58442;52.716;23.560;2022-09-20T07:00:56;100955.09;;;12.54;77.53
70521;BME280;58442;52.716;23.560;2022-09-20T07:03:04;100958.60;;;12.54;77.50
70521;BME280;58442;52.716;23.560;2022-09-20T07:05:14;100953.95;;;12.55;77.50
70521;BME280;58442;52.716;23.560;2022-09-20T07:07:16;100960.20;;;12.55;77.45
70521;BME280;58442;52.716;23.560;2022-09-20T07:09:19;100959.06;;;12.56;77.41
70521;BME280;58442;52.716;23.560;2022-09-20T07:11:20;100956.34;;;12.56;77.42
70521;BME280;58442;52.716;23.560;2022-09-20T07:13:22;100954.82;;;12.59;77.42
70521;BME280;58442;52.716;23.560;2022-09-20T07:15:27;100954.82;;;12.59;77.43
70521;BME280;58442;52.716;23.560;2022-09-20T07:17:28;100967.67;;;12.58;77.41
70521;BME280;58442;52.716;23.560;2022-09-20T07:19:35;100966.52;;;12.59;77.44
70521;BME280;58442;52.716;23.560;2022-09-20T07:21:36;100969.67;;;12.62;77.43
70521;BME280;58442;52.716;23.560;2022-09-20T07:23:38;100965.01;;;12.62;77.48
70521;BME280;58442;52.716;23.560;2022-09-20T07:25:39;100975.91;;;12.62;77.54
70521;BME280;58442;52.716;23.560;2022-09-20T07:27:50;100968.98;;;12.65;77.53
70521;BME280;58442;52.716;23.560;2022-09-20T07:29:51;100976.80;;;12.66;77.51
70521;BME280;58442;52.716;23.560;2022-09-20T07:31:52;100979.16;;;12.68;77.44
70521;BME280;58442;52.716;23.560;2022-09-20T07:33:54;100981.10;;;12.67;77.41
70521;BME280;58442;52.716;23.560;2022-09-20T07:35:55;100985.07;;;12.70;77.42
70521;BME280;58442;52.716;23.560;2022-09-20T07:37:56;100982.41;;;12.73;77.42
70521;BME280;58442;52.716;23.560;2022-09-20T07:39:57;100982.41;;;12.73;77.36
70521;BME280;58442;52.716;23.560;2022-09-20T07:42:00;100988.66;;;12.74;77.42
70521;BME280;58442;52.716;23.560;2022-09-20T07:44:06;100993.41;;;12.77;77.46
70521;BME280;58442;52.716;23.560;2022-09-20T07:46:19;100985.73;;;12.82;77.41
70521;BME280;58442;52.716;23.560;2022-09-20T07:48:30;100992.06;;;12.86;77.43
70521;BME280;58442;52.716;23.560;2022-09-20T07:50:32;100996.46;;;12.91;77.28
70521;BME280;58442;52.716;23.560;2022-09-20T07:52:33;100990.64;;;12.93;77.25
70521;BME280;58442;52.716;23.560;2022-09-20T07:54:34;100998.89;;;12.96;77.22
70521;BME280;58442;52.716;23.560;2022-09-20T07:56:35;100990.00;;;12.99;77.21
70521;BME280;58442;52.716;23.560;2022-09-20T07:58:40;100992.73;;;12.99;77.22
70521;BME280;58442;52.716;23.560;2022-09-20T08:00:42;100998.62;;;13.01;77.25
70521;BME280;58442;52.716;23.560;2022-09-20T08:02:43;100999.04;;;13.03;77.28
70521;BME280;58442;52.716;23.560;2022-09-20T08:04:45;100991.36;;;13.09;77.23
70521;BME280;58442;52.716;23.560;2022-09-20T08:06:54;100994.60;;;13.14;77.16
70521;BME280;58442;52.716;23.560;2022-09-20T08:08:58;100998.22;;;13.19;77.13
70521;BME280;58442;52.716;23.560;2022-09-20T08:11:09;100994.33;;;13.20;77.15
70521;BME280;58442;52.716;23.560;2022-09-20T08:13:12;100999.37;;;13.18;77.20
70521;BME280;58442;52.716;23.560;2022-09-20T08:15:14;100995.82;;;13.17;77.19
70521;BME280;58442;52.716;23.560;2022-09-20T08:17:15;101000.48;;;13.17;77.13
70521;BME280;58442;52.716;23.560;2022-09-20T08:19:22;101000.85;;;13.15;77.08
70521;BME280;58442;52.716;23.560;2022-09-20T08:21:26;100996.55;;;13.14;77.21
70521;BME280;58442;52.716;23.560;2022-09-20T08:23:27;101004.83;;;13.18;77.18
70521;BME280;58442;52.716;23.560;2022-09-20T08:25:28;101006.13;;;13.24;77.11
70521;BME280;58442;52.716;23.560;2022-09-20T08:27:29;101000.80;;;13.31;77.09
70521;BME280;58442;52.716;23.560;2022-09-20T08:29:31;100996.36;;;13.42;77.04
70521;BME280;58442;52.716;23.560;2022-09-20T08:31:39;100999.74;;;13.55;76.93
70521;BME280;58442;52.716;23.560;2022-09-20T08:33:42;101002.32;;;13.67;76.83
70521;BME280;58442;52.716;23.560;2022-09-20T08:35:47;100998.27;;;13.80;76.70
70521;BME280;58442;52.716;23.560;2022-09-20T08:37:49;100998.95;;;13.96;76.49
70521;BME280;58442;52.716;23.560;2022-09-20T08:39:54;100996.84;;;14.09;76.34
70521;BME280;58442;52.716;23.560;2022-09-20T08:42:09;100996.58;;;14.18;76.23
70521;BME280;58442;52.716;23.560;2022-09-20T08:44:19;101000.33;;;14.33;76.05
70521;BME280;58442;52.716;23.560;2022-09-20T08:46:27;100996.09;;;14.35;76.07
70521;BME280;58442;52.716;23.560;2022-09-20T08:48:32;100997.71;;;14.40;75.97
70521;BME280;58442;52.716;23.560;2022-09-20T08:50:37;100996.55;;;14.41;75.90
70521;BME280;58442;52.716;23.560;2022-09-20T08:52:38;101002.02;;;14.41;75.81
70521;BME280;58442;52.716;23.560;2022-09-20T08:54:41;101007.07;;;14.39;75.67
70521;BME280;58442;52.716;23.560;2022-09-20T08:56:43;101001.98;;;14.37;75.73
70521;BME280;58442;52.716;23.560;2022-09-20T08:58:52;101003.92;;;14.37;75.58
70521;BME280;58442;52.716;23.560;2022-09-20T09:00:55;101003.97;;;14.40;75.51
70521;BME280;58442;52.716;23.560;2022-09-20T09:03:05;101007.66;;;14.48;75.38
70521;BME280;58442;52.716;23.560;2022-09-20T09:07:19;101012.08;;;14.56;75.24
70521;BME280;58442;52.716;23.560;2022-09-20T09:09:28;101007.77;;;14.55;75.23
70521;BME280;58442;52.716;23.560;2022-09-20T09:11:30;101006.91;;;14.51;75.24
70521;BME280;58442;52.716;23.560;2022-09-20T09:15:50;101004.76;;;14.41;75.25
70521;BME280;58442;52.716;23.560;2022-09-20T09:17:52;101009.40;;;14.37;75.27
70521;BME280;58442;52.716;23.560;2022-09-20T09:19:58;101009.70;;;14.32;75.24
70521;BME280;58442;52.716;23.560;2022-09-20T09:22:04;101006.55;;;14.30;75.20
70521;BME280;58442;52.716;23.560;2022-09-20T09:24:15;101013.52;;;14.27;75.21
70521;BME280;58442;52.716;23.560;2022-09-20T09:26:22;101016.63;;;14.26;75.18
70521;BME280;58442;52.716;23.560;2022-09-20T09:28:27;101011.59;;;14.28;75.13
70521;BME280;58442;52.716;23.560;2022-09-20T09:30:38;101012.73;;;14.27;75.17
70521;BME280;58442;52.716;23.560;2022-09-20T09:32:40;101020.63;;;14.32;75.22
70521;BME280;58442;52.716;23.560;2022-09-20T09:34:41;101014.34;;;14.28;75.37
70521;BME280;58442;52.716;23.560;2022-09-20T09:36:44;101015.05;;;14.24;75.35
70521;BME280;58442;52.716;23.560;2022-09-20T09:38:45;101008.79;;;14.24;75.25
70521;BME280;58442;52.716;23.560;2022-09-20T09:41:01;101015.05;;;14.24;75.13
70521;BME280;58442;52.716;23.560;2022-09-20T09:43:03;101011.89;;;14.22;75.13
70521;BME280;58442;52.716;23.560;2022-09-20T09:45:11;101023.55;;;14.19;75.25
70521;BME280;58442;52.716;23.560;2022-09-20T09:47:26;101012.73;;;14.27;75.27
70521;BME280;58442;52.716;23.560;2022-09-20T09:49:32;101012.17;;;14.40;75.19
70521;BME280;58442;52.716;23.560;2022-09-20T09:51:36;101025.01;;;14.59;75.02
70521;BME280;58442;52.716;23.560;2022-09-20T09:53:38;101025.90;;;14.67;75.03
70521;BME280;58442;52.716;23.560;2022-09-20T09:55:52;101028.70;;;14.70;75.07
70521;BME280;58442;52.716;23.560;2022-09-20T09:58:14;101037.63;;;14.67;75.02
70521;BME280;58442;52.716;23.560;2022-09-20T10:00:24;101045.38;;;14.62;74.83
70521;BME280;58442;52.716;23.560;2022-09-20T10:04:55;101035.59;;;14.38;74.42
70521;BME280;58442;52.716;23.560;2022-09-20T10:07:00;101040.80;;;14.23;74.36
70521;BME280;58442;52.716;23.560;2022-09-20T10:30:07;101041.42;;;13.17;75.92
70521;BME280;58442;52.716;23.560;2022-09-20T10:37:01;101038.55;;;13.09;76.10
70521;BME280;58442;52.716;23.560;2022-09-20T10:39:16;101042.42;;;13.08;76.22
70521;BME280;58442;52.716;23.560;2022-09-20T10:41:39;101043.16;;;13.05;76.29
70521;BME280;58442;52.716;23.560;2022-09-20T10:48:23;101053.49;;;13.15;76.26
70521;BME280;58442;52.716;23.560;2022-09-20T10:50:35;101053.25;;;13.21;76.17
70521;BME280;58442;52.716;23.560;2022-09-20T10:55:06;101049.89;;;13.27;76.24
70521;BME280;58442;52.716;23.560;2022-09-20T10:57:24;101044.43;;;13.27;76.31
70521;BME280;58442;52.716;23.560;2022-09-20T10:59:47;101051.46;;;13.28;76.46
70521;BME280;58442;52.716;23.560;2022-09-20T11:04:34;101053.13;;;13.33;76.60
70521;BME280;58442;52.716;23.560;2022-09-20T11:06:49;101043.15;;;13.40;76.63
70521;BME280;58442;52.716;23.560;2022-09-20T11:09:02;101046.59;;;13.57;76.48
70521;BME280;58442;52.716;23.560;2022-09-20T11:15:36;101047.60;;;14.10;75.98
70521;BME280;58442;52.716;23.560;2022-09-20T11:20:12;101047.38;;;14.42;75.72
70521;BME280;58442;52.716;23.560;2022-09-20T11:22:19;101041.84;;;14.61;75.47
70521;BME280;58442;52.716;23.560;2022-09-20T11:24:33;101047.23;;;14.81;75.23
70521;BME280;58442;52.716;23.560;2022-09-20T11:26:49;101048.59;;;14.94;75.04
70521;BME280;58442;52.716;23.560;2022-09-20T11:28:56;101043.59;;;14.99;75.03
70521;BME280;58442;52.716;23.560;2022-09-20T11:31:13;101046.73;;;15.01;75.09
70521;BME280;58442;52.716;23.560;2022-09-20T11:33:24;101053.00;;;15.02;75.04
70521;BME280;58442;52.716;23.560;2022-09-20T11:35:36;101042.05;;;15.02;74.98
70521;BME280;58442;52.716;23.560;2022-09-20T11:37:44;101045.54;;;14.99;74.96
70521;BME280;58442;52.716;23.560;2022-09-20T11:39:51;101045.48;;;14.95;74.99
70521;BME280;58442;52.716;23.560;2022-09-20T11:41:55;101055.23;;;14.93;74.97
70521;BME280;58442;52.716;23.560;2022-09-20T11:44:09;101054.81;;;14.91;74.98
70521;BME280;58442;52.716;23.560;2022-09-20T11:46:38;101061.45;;;14.90;74.92
70521;BME280;58442;52.716;23.560;2022-09-20T11:48:38;101051.63;;;14.89;74.78
70521;BME280;58442;52.716;23.560;2022-09-20T11:50:48;101056.70;;;14.87;74.66
70521;BME280;58442;52.716;23.560;2022-09-20T11:57:44;101072.30;;;14.83;74.47
70521;BME280;58442;52.716;23.560;2022-09-20T11:59:56;101076.16;;;14.82;74.42
70521;BME280;58442;52.716;23.560;2022-09-20T12:01:59;101073.01;;;14.80;74.48
70521;BME280;58442;52.716;23.560;2022-09-20T12:06:39;101074.17;;;14.78;74.47
70521;BME280;58442;52.716;23.560;2022-09-20T12:08:36;101075.44;;;14.85;74.48
70521;BME280;58442;52.716;23.560;2022-09-20T12:13:17;101065.59;;;15.07;74.41
70521;BME280;58442;52.716;23.560;2022-09-20T12:15:24;101066.88;;;15.16;74.36
70521;BME280;58442;52.716;23.560;2022-09-20T12:19:39;101068.33;;;15.37;74.29
70521;BME280;58442;52.716;23.560;2022-09-20T12:24:01;101070.30;;;15.66;74.09
70521;BME280;58442;52.716;23.560;2022-09-20T12:28:36;101065.02;;;15.84;73.83
70521;BME280;58442;52.716;23.560;2022-09-20T12:30:38;101065.40;;;15.82;73.71
70521;BME280;58442;52.716;23.560;2022-09-20T12:32:49;101075.16;;;15.80;73.64
70521;BME280;58442;52.716;23.560;2022-09-20T12:34:51;101072.75;;;15.75;73.54
70521;BME280;58442;52.716;23.560;2022-09-20T12:39:15;101078.99;;;15.72;73.38
70521;BME280;58442;52.716;23.560;2022-09-20T12:41:18;101080.14;;;15.71;73.28
70521;BME280;58442;52.716;23.560;2022-09-20T12:43:21;101081.30;;;15.70;73.14
70521;BME280;58442;52.716;23.560;2022-09-20T12:45:23;101085.59;;;15.67;73.03
70521;BME280;58442;52.716;23.560;2022-09-20T12:47:33;101076.52;;;15.63;72.96
70521;BME280;58442;52.716;23.560;2022-09-20T12:49:51;101079.99;;;15.60;72.87
70521;BME280;58442;52.716;23.560;2022-09-20T12:52:36;101077.20;;;15.56;72.77
70521;BME280;58442;52.716;23.560;2022-09-20T12:54:32;101081.07;;;15.52;72.77
70521;BME280;58442;52.716;23.560;2022-09-20T12:56:36;101084.13;;;15.47;72.88
70521;BME280;58442;52.716;23.560;2022-09-20T13:07:47;101084.53;;;15.49;73.07
70521;BME280;58442;52.716;23.560;2022-09-20T13:09:52;101081.02;;;15.48;73.12
70521;BME280;58442;52.716;23.560;2022-09-20T13:11:55;101085.71;;;15.48;73.19
70521;BME280;58442;52.716;23.560;2022-09-20T13:14:01;101089.23;;;15.48;73.17
70521;BME280;58442;52.716;23.560;2022-09-20T13:16:05;101081.02;;;15.48;73.17
70521;BME280;58442;52.716;23.560;2022-09-20T13:18:11;101091.59;;;15.50;73.20
70521;BME280;58442;52.716;23.560;2022-09-20T13:20:27;101083.44;;;15.53;73.16
70521;BME280;58442;52.716;23.560;2022-09-20T13:22:37;101081.88;;;15.56;73.09
70521;BME280;58442;52.716;23.560;2022-09-20T13:24:47;101090.55;;;15.58;73.02
70521;BME280;58442;52.716;23.560;2022-09-20T13:26:49;101091.34;;;15.58;73.06
70521;BME280;58442;52.716;23.560;2022-09-20T13:28:54;101091.34;;;15.58;73.09
70521;BME280;58442;52.716;23.560;2022-09-20T13:33:15;101100.74;;;15.61;72.91
70521;BME280;58442;52.716;23.560;2022-09-20T13:35:19;101099.55;;;15.58;72.89
70521;BME280;58442;52.716;23.560;2022-09-20T13:37:32;101101.50;;;15.58;72.88
70521;BME280;58442;52.716;23.560;2022-09-20T13:39:35;101098.33;;;15.56;72.84
70521;BME280;58442;52.716;23.560;2022-09-20T13:41:37;101093.60;;;15.53;72.86
70521;BME280;58442;52.716;23.560;2022-09-20T13:43:40;101101.77;;;15.49;72.95
70521;BME280;58442;52.716;23.560;2022-09-20T13:45:51;101092.73;;;15.45;73.03
70521;BME280;58442;52.716;23.560;2022-09-20T13:47:52;101090.71;;;15.42;73.08
70521;BME280;58442;52.716;23.560;2022-09-20T13:50:11;101090.68;;;15.39;73.10
70521;BME280;58442;52.716;23.560;2022-09-20T13:54:28;101080.80;;;15.30;73.19
70521;BME280;58442;52.716;23.560;2022-09-20T13:56:30;101086.59;;;15.25;73.23
70521;BME280;58442;52.716;23.560;2022-09-20T13:58:34;101081.48;;;15.24;73.22
70521;BME280;58442;52.716;23.560;2022-09-20T14:02:51;101084.85;;;15.14;73.33
70521;BME280;58442;52.716;23.560;2022-09-20T14:04:56;101091.08;;;15.11;73.39
70521;BME280;58442;52.716;23.560;2022-09-20T14:07:05;101082.39;;;15.05;73.42
70521;BME280;58442;52.716;23.560;2022-09-20T14:11:36;101088.03;;;14.89;73.76
70521;BME280;58442;52.716;23.560;2022-09-20T14:13:45;101093.02;;;14.84;73.89
70521;BME280;58442;52.716;23.560;2022-09-20T14:15:48;101098.84;;;14.82;73.97
70521;BME280;58442;52.716;23.560;2022-09-20T14:17:49;101100.74;;;14.78;74.04
70521;BME280;58442;52.716;23.560;2022-09-20T14:19:54;101105.80;;;14.76;74.13
70521;BME280;58442;52.716;23.560;2022-09-20T14:22:03;101092.45;;;14.74;74.15
70521;BME280;58442;52.716;23.560;2022-09-20T14:26:29;101104.53;;;14.70;74.24
70521;BME280;58442;52.716;23.560;2022-09-20T14:28:34;101101.00;;;14.69;74.28
70521;BME280;58442;52.716;23.560;2022-09-20T14:30:36;101102.09;;;14.65;74.32
70521;BME280;58442;52.716;23.560;2022-09-20T14:32:42;101102.02;;;14.61;74.44
70521;BME280;58442;52.716;23.560;2022-09-20T14:37:02;101113.30;;;14.56;74.51
70521;BME280;58442;52.716;23.560;2022-09-20T14:39:12;101097.59;;;14.53;74.56
70521;BME280;58442;52.716;23.560;2022-09-20T14:43:33;101102.64;;;14.51;74.55
70521;BME280;58442;52.716;23.560;2022-09-20T14:45:37;101096.75;;;14.49;74.49
70521;BME280;58442;52.716;23.560;2022-09-20T14:49:54;101097.47;;;14.46;74.53
70521;BME280;58442;52.716;23.560;2022-09-20T14:54:26;101099.38;;;14.45;74.47
70521;BME280;58442;52.716;23.560;2022-09-20T14:56:34;101097.47;;;14.46;74.49
70521;BME280;58442;52.716;23.560;2022-09-20T15:00:58;101102.11;;;14.45;74.53
70521;BME280;58442;52.716;23.560;2022-09-20T15:03:07;101103.38;;;14.48;74.57
70521;BME280;58442;52.716;23.560;2022-09-20T15:05:18;101101.44;;;14.48;74.55
70521;BME280;58442;52.716;23.560;2022-09-20T15:07:20;101094.44;;;14.51;74.50
70521;BME280;58442;52.716;23.560;2022-09-20T15:09:21;101096.02;;;14.52;74.54
70521;BME280;58442;52.716;23.560;2022-09-20T15:11:23;101096.43;;;14.54;74.52
70521;BME280;58442;52.716;23.560;2022-09-20T15:13:24;101113.30;;;14.56;74.49
70521;BME280;58442;52.716;23.560;2022-09-20T15:15:29;101110.18;;;14.58;74.49
70521;BME280;58442;52.716;23.560;2022-09-20T15:17:30;101114.07;;;14.57;74.51
70521;BME280;58442;52.716;23.560;2022-09-20T15:19:31;101112.50;;;14.56;74.54
70521;BME280;58442;52.716;23.560;2022-09-20T15:21:34;101117.18;;;14.55;74.58
70521;BME280;58442;52.716;23.560;2022-09-20T15:23:44;101118.31;;;14.54;74.60
70521;BME280;58442;52.716;23.560;2022-09-20T15:25:48;101128.13;;;14.55;74.58
70521;BME280;58442;52.716;23.560;2022-09-20T15:27:50;101125.39;;;14.55;74.61
70521;BME280;58442;52.716;23.560;2022-09-20T15:29:51;101130.85;;;14.55;74.61
70521;BME280;58442;52.716;23.560;2022-09-20T15:31:59;101126.97;;;14.56;74.58
70521;BME280;58442;52.716;23.560;2022-09-20T15:34:00;101128.13;;;14.55;74.59
70521;BME280;58442;52.716;23.560;2022-09-20T15:36:02;101130.41;;;14.53;74.63
70521;BME280;58442;52.716;23.560;2022-09-20T15:38:03;101135.45;;;14.51;74.67
70521;BME280;58442;52.716;23.560;2022-09-20T15:40:14;101132.31;;;14.49;74.68
70521;BME280;58442;52.716;23.560;2022-09-20T15:42:15;101136.55;;;14.46;74.76